createdAt,value
2023-01-19T00:01:44.399Z,5.90
2023-01-19T00:04:12.406Z,5.86
2023-01-19T00:06:40.482Z,5.87
2023-01-19T00:09:08.486Z,5.84
2023-01-19T00:11:36.731Z,5.82
2023-01-19T00:14:05.205Z,5.81
2023-01-19T00:16:33.275Z,5.83
2023-01-19T00:19:01.367Z,5.78
2023-01-19T00:21:29.436Z,5.72
2023-01-19T00:23:57.459Z,5.81
2023-01-19T00:26:25.527Z,5.83
2023-01-19T00:28:53.609Z,5.84
2023-01-19T00:31:22.093Z,5.84
2023-01-19T00:33:51.665Z,5.84
2023-01-19T00:36:19.814Z,5.86
2023-01-19T00:38:47.844Z,5.86
2023-01-19T00:41:16.530Z,5.75
2023-01-19T00:53:07.962Z,5.76
2023-01-19T00:55:36.062Z,5.81
2023-01-19T00:58:04.191Z,5.82
2023-01-19T01:00:32.271Z,5.85
2023-01-19T01:03:00.896Z,5.85
2023-01-19T01:05:29.543Z,5.89
2023-01-19T01:07:57.815Z,5.91
2023-01-19T01:10:29.030Z,5.92
2023-01-19T01:12:58.656Z,5.80
2023-01-19T01:15:29.677Z,5.79
2023-01-19T01:17:57.828Z,5.75
2023-01-19T01:20:30.356Z,5.74
2023-01-19T01:22:59.038Z,5.74
2023-01-19T01:25:28.817Z,5.74
2023-01-19T01:27:56.905Z,5.71
2023-01-19T01:30:25.032Z,5.71
2023-01-19T01:32:53.054Z,5.71
2023-01-19T01:35:21.131Z,5.67
2023-01-19T01:37:49.230Z,5.63
2023-01-19T01:40:18.772Z,5.61
2023-01-19T01:42:47.062Z,5.59
2023-01-19T01:45:38.562Z,5.58
2023-01-19T01:48:06.659Z,5.56
2023-01-19T01:51:00.423Z,5.60
2023-01-19T01:53:32.952Z,5.58
2023-01-19T01:56:05.209Z,5.64
2023-01-19T01:58:34.431Z,5.62
2023-01-19T02:01:21.595Z,5.57
2023-01-19T02:03:50.363Z,5.60
2023-01-19T02:06:18.362Z,5.57
2023-01-19T02:09:29.276Z,5.59
2023-01-19T02:12:15.912Z,5.55
2023-01-19T02:14:44.002Z,5.56
2023-01-19T02:17:12.179Z,5.60
2023-01-19T02:19:43.606Z,5.63
2023-01-19T02:22:25.758Z,5.62
2023-01-19T02:24:54.029Z,5.65
2023-01-19T02:27:22.080Z,5.63
2023-01-19T02:29:50.132Z,5.61
2023-01-19T02:32:18.214Z,5.57
2023-01-19T02:34:46.410Z,5.48
2023-01-19T02:37:17.177Z,5.40
2023-01-19T02:39:52.910Z,5.33
2023-01-19T02:42:44.641Z,5.36
2023-01-19T02:45:15.588Z,5.33
2023-01-19T02:47:46.608Z,5.32
2023-01-19T02:50:39.134Z,5.29
2023-01-19T02:53:21.741Z,5.31
2023-01-19T02:55:58.159Z,5.32
2023-01-19T02:58:52.882Z,5.32
2023-01-19T03:01:54.232Z,5.33
2023-01-19T03:04:37.635Z,5.38
2023-01-19T03:07:14.899Z,5.44
2023-01-19T03:09:48.643Z,5.43
2023-01-19T03:12:42.309Z,5.45
2023-01-19T03:15:22.353Z,5.49
2023-01-19T03:17:53.162Z,5.45
2023-01-19T03:20:28.427Z,5.43
2023-01-19T03:23:03.445Z,5.42
2023-01-19T03:25:35.256Z,5.43
2023-01-19T03:28:04.495Z,5.44
2023-01-19T03:30:39.213Z,5.47
2023-01-19T03:33:21.812Z,5.54
2023-01-19T03:35:57.010Z,5.64
2023-01-19T03:38:27.330Z,5.71
2023-01-19T03:41:00.296Z,5.85
2023-01-19T03:43:31.610Z,5.97
2023-01-19T03:46:01.245Z,6.08
2023-01-19T03:48:29.366Z,6.19
2023-01-19T03:50:57.514Z,6.36
2023-01-19T03:53:25.501Z,6.46
2023-01-19T03:55:54.406Z,6.54
2023-01-19T03:58:22.469Z,6.64
2023-01-19T04:00:50.590Z,6.70
2023-01-19T04:03:18.991Z,6.79
2023-01-19T04:05:47.040Z,6.88
2023-01-19T04:08:15.233Z,6.95
2023-01-19T04:10:43.333Z,7.00
2023-01-19T04:13:11.376Z,7.10
2023-01-19T04:15:39.644Z,7.11
2023-01-19T04:18:08.803Z,7.13
2023-01-19T04:20:37.472Z,7.16
2023-01-19T04:23:05.547Z,7.16
2023-01-19T04:25:33.758Z,7.18
2023-01-19T04:28:01.946Z,7.16
2023-01-19T04:30:30.009Z,7.14
2023-01-19T04:33:00.100Z,7.11
2023-01-19T04:35:28.807Z,7.07
2023-01-19T04:37:56.826Z,7.06
2023-01-19T04:40:25.008Z,7.03
2023-01-19T04:42:54.164Z,6.97
2023-01-19T04:45:22.186Z,6.95
2023-01-19T04:47:51.135Z,6.98
2023-01-19T04:50:19.129Z,7.07
2023-01-19T04:52:48.031Z,7.21
2023-01-19T04:55:17.126Z,7.44
2023-01-19T04:57:45.631Z,7.54
2023-01-19T05:00:14.170Z,7.60
2023-01-19T05:02:44.289Z,7.67
2023-01-19T05:05:13.324Z,7.75
2023-01-19T05:07:43.598Z,7.84
2023-01-19T05:10:12.206Z,7.87
2023-01-19T05:12:40.498Z,7.91
2023-01-19T05:15:10.110Z,8.01
2023-01-19T05:17:38.477Z,8.09
2023-01-19T05:20:07.510Z,8.18
2023-01-19T05:22:35.529Z,8.26
2023-01-19T05:25:03.824Z,8.29
2023-01-19T05:27:31.920Z,8.33
2023-01-19T05:29:59.878Z,8.34
2023-01-19T05:32:28.132Z,8.36
2023-01-19T05:34:56.546Z,8.37
2023-01-19T05:37:24.652Z,8.32
2023-01-19T05:39:53.407Z,8.30
2023-01-19T05:42:21.556Z,8.32
2023-01-19T05:44:49.744Z,8.25
2023-01-19T05:47:17.789Z,8.20
2023-01-19T05:49:45.901Z,8.20
2023-01-19T05:52:14.009Z,8.20
2023-01-19T05:54:42.093Z,8.17
2023-01-19T05:57:10.951Z,8.09
2023-01-19T05:59:39.025Z,8.03
2023-01-19T06:02:07.139Z,7.99
2023-01-19T06:04:35.562Z,8.02
2023-01-19T06:07:04.775Z,7.99
2023-01-19T06:09:33.768Z,7.97
2023-01-19T06:12:01.778Z,7.92
2023-01-19T06:14:30.359Z,7.86
2023-01-19T06:16:58.517Z,7.90
2023-01-19T06:19:26.562Z,7.84
2023-01-19T06:21:54.714Z,7.77
2023-01-19T06:24:24.104Z,7.65
2023-01-19T06:26:52.305Z,7.62
2023-01-19T06:29:20.544Z,7.62
2023-01-19T06:31:49.134Z,7.60
2023-01-19T06:34:18.254Z,7.60
2023-01-19T06:50:30.071Z,7.91
2023-01-19T06:52:58.693Z,8.04
2023-01-19T06:55:27.933Z,7.96
2023-01-19T06:57:58.797Z,8.00
2023-01-19T07:00:27.294Z,8.05
2023-01-19T07:02:55.563Z,8.04
2023-01-19T07:05:24.589Z,8.13
2023-01-19T07:07:57.078Z,8.16
2023-01-19T07:10:25.316Z,8.19
2023-01-19T07:12:53.474Z,8.17
2023-01-19T07:15:22.618Z,8.24
2023-01-19T07:17:50.655Z,8.26
2023-01-19T07:20:19.857Z,8.34
2023-01-19T07:22:49.005Z,8.30
2023-01-19T07:25:17.239Z,8.34
2023-01-19T07:27:45.343Z,8.36
2023-01-19T07:30:16.185Z,8.40
2023-01-19T07:32:44.260Z,8.37
2023-01-19T07:35:12.584Z,8.35
2023-01-19T07:37:40.681Z,8.41
2023-01-19T07:40:09.342Z,8.38
2023-01-19T07:42:38.104Z,8.47
2023-01-19T07:45:06.743Z,8.56
2023-01-19T07:47:34.895Z,8.51
2023-01-19T07:50:03.543Z,8.55
2023-01-19T07:52:31.960Z,8.64
2023-01-19T07:55:00.289Z,8.61
2023-01-19T07:57:28.772Z,8.64
2023-01-19T07:59:56.964Z,8.62
2023-01-19T08:02:26.030Z,8.70
2023-01-19T08:04:54.302Z,8.77
2023-01-19T08:07:22.608Z,8.81
2023-01-19T08:09:50.923Z,8.82
2023-01-19T08:12:19.105Z,8.84
2023-01-19T08:14:47.221Z,8.99
2023-01-19T08:17:15.266Z,9.12
2023-01-19T08:19:44.112Z,9.32
2023-01-19T08:22:12.411Z,9.54
2023-01-19T08:24:40.539Z,9.73
2023-01-19T08:27:13.673Z,9.87
2023-01-19T08:29:41.801Z,10.05
2023-01-19T08:32:10.971Z,10.13
2023-01-19T08:34:41.322Z,10.25
2023-01-19T08:37:10.074Z,10.32
2023-01-19T08:39:38.375Z,10.38
2023-01-19T08:42:06.518Z,10.34
2023-01-19T08:44:34.616Z,10.39
2023-01-19T08:47:02.847Z,10.47
2023-01-19T08:49:30.905Z,10.52
2023-01-19T08:51:59.264Z,10.64
2023-01-19T08:54:27.463Z,10.76
2023-01-19T08:56:55.703Z,10.91
2023-01-19T08:59:23.741Z,11.07
2023-01-19T09:01:52.057Z,11.19
2023-01-19T09:04:20.272Z,11.24
2023-01-19T09:06:48.959Z,11.47
2023-01-19T09:09:17.042Z,11.56
2023-01-19T09:11:45.474Z,11.69
2023-01-19T09:14:14.228Z,11.71
2023-01-19T09:16:42.398Z,11.62
2023-01-19T09:19:10.575Z,11.65
2023-01-19T09:21:38.921Z,11.64
2023-01-19T09:24:07.377Z,11.58
2023-01-19T09:26:36.653Z,11.49
2023-01-19T09:29:04.829Z,11.47
2023-01-19T09:31:33.373Z,11.50
2023-01-19T09:34:01.633Z,11.44
2023-01-19T09:36:30.301Z,11.40
2023-01-19T09:38:58.586Z,11.35
2023-01-19T09:41:26.779Z,11.33
2023-01-19T09:44:00.356Z,11.30
2023-01-19T09:46:42.166Z,11.34
2023-01-19T09:49:22.023Z,11.34
2023-01-19T09:51:51.650Z,11.34
2023-01-19T09:54:36.342Z,11.28
2023-01-19T09:57:15.110Z,11.24
2023-01-19T09:59:47.896Z,11.31
2023-01-19T10:02:36.764Z,11.31
2023-01-19T10:05:21.773Z,11.30
2023-01-19T10:08:11.269Z,11.28
2023-01-19T10:10:45.301Z,11.30
2023-01-19T10:13:13.544Z,11.24
2023-01-19T10:15:47.846Z,11.20
2023-01-19T10:18:46.038Z,11.23
2023-01-19T10:21:33.599Z,11.22
2023-01-19T10:24:06.687Z,11.21
2023-01-19T10:26:42.932Z,11.26
2023-01-19T10:29:24.190Z,11.32
2023-01-19T10:31:55.714Z,11.32
2023-01-19T10:34:24.058Z,11.25
2023-01-19T10:37:02.614Z,10.98
2023-01-19T10:39:30.755Z,11.10
2023-01-19T10:42:02.611Z,11.13
2023-01-19T10:44:36.594Z,11.15
2023-01-19T10:47:11.904Z,11.04
2023-01-19T10:49:44.708Z,10.86
2023-01-19T10:52:22.242Z,10.88
2023-01-19T10:54:50.505Z,10.87
2023-01-19T10:57:40.927Z,10.88
2023-01-19T11:00:40.109Z,10.80
2023-01-19T11:03:29.792Z,10.84
2023-01-19T11:06:13.851Z,10.95
2023-01-19T11:08:44.491Z,11.07
2023-01-19T11:11:14.128Z,11.15
2023-01-19T11:13:43.877Z,11.20
2023-01-19T11:16:35.287Z,11.23
2023-01-19T11:19:05.114Z,11.30
2023-01-19T11:21:33.600Z,11.36
2023-01-19T11:24:05.550Z,11.33
2023-01-19T11:27:03.204Z,11.16
2023-01-19T11:29:32.049Z,11.16
2023-01-19T11:32:10.367Z,11.17
2023-01-19T11:34:41.273Z,11.01
2023-01-19T11:37:18.769Z,11.10
2023-01-19T11:39:50.036Z,11.16
2023-01-19T11:42:19.208Z,11.15
2023-01-19T11:44:47.298Z,11.08
2023-01-19T11:47:38.954Z,11.01
2023-01-19T11:50:23.068Z,10.94
2023-01-19T11:53:07.539Z,10.96
2023-01-19T11:55:54.346Z,11.06
2023-01-19T11:58:24.035Z,11.13
2023-01-19T12:01:01.605Z,11.08
2023-01-19T12:03:44.349Z,11.01
2023-01-19T12:06:16.480Z,11.05
2023-01-19T12:08:51.782Z,11.00
2023-01-19T12:11:27.021Z,10.98
2023-01-19T12:13:55.250Z,10.97
2023-01-19T12:16:29.083Z,10.99
2023-01-19T12:19:10.978Z,11.02
2023-01-19T12:21:39.091Z,11.02
2023-01-19T12:24:39.675Z,11.01
2023-01-19T12:27:43.787Z,11.04
2023-01-19T12:30:23.103Z,11.08
2023-01-19T12:32:51.786Z,11.04
2023-01-19T12:35:56.203Z,11.04
2023-01-19T12:38:33.888Z,11.04
2023-01-19T12:41:22.294Z,11.02
2023-01-19T12:44:16.592Z,11.02
2023-01-19T12:46:52.503Z,10.98
2023-01-19T12:49:23.553Z,10.98
2023-01-19T12:52:13.288Z,11.06
2023-01-19T12:54:50.326Z,11.10
2023-01-19T12:57:24.978Z,11.21
2023-01-19T13:00:02.977Z,11.27
2023-01-19T13:02:42.548Z,11.28
2023-01-19T13:05:18.892Z,11.24
2023-01-19T13:08:02.511Z,11.24
2023-01-19T13:10:52.613Z,11.18
2023-01-19T13:13:28.131Z,11.17
2023-01-19T13:16:01.178Z,11.09
2023-01-19T13:18:39.638Z,11.07
2023-01-19T13:21:09.676Z,10.93
2023-01-19T13:23:50.372Z,10.87
2023-01-19T13:26:27.858Z,10.87
2023-01-19T13:29:07.191Z,10.66
2023-01-19T13:31:39.887Z,10.69
2023-01-19T13:34:21.153Z,10.74
2023-01-19T13:36:55.315Z,10.75
2023-01-19T13:39:28.903Z,10.68
2023-01-19T13:42:02.434Z,10.57
2023-01-19T13:44:52.301Z,10.54
2023-01-19T13:47:27.163Z,10.46
2023-01-19T13:49:59.009Z,10.35
2023-01-19T13:52:31.440Z,10.38
2023-01-19T13:55:03.802Z,10.48
2023-01-19T13:57:39.496Z,10.55
2023-01-19T14:00:16.616Z,10.55
2023-01-19T14:03:16.055Z,10.50
2023-01-19T14:05:44.867Z,10.49
2023-01-19T14:08:15.350Z,10.42
2023-01-19T14:10:56.517Z,10.36
2023-01-19T14:13:29.562Z,10.17
2023-01-19T14:16:06.480Z,10.14
2023-01-19T14:18:36.347Z,10.07
2023-01-19T14:21:14.396Z,10.11
2023-01-19T14:23:52.674Z,10.09
2023-01-19T14:26:39.653Z,10.11
2023-01-19T14:29:32.764Z,10.04
2023-01-19T14:32:28.158Z,9.98
2023-01-19T14:35:04.616Z,10.01
2023-01-19T14:37:35.710Z,9.93
2023-01-19T14:40:18.740Z,9.90
2023-01-19T14:43:08.589Z,9.88
2023-01-19T14:45:40.675Z,9.85
2023-01-19T14:48:19.215Z,9.74
2023-01-19T14:51:02.356Z,9.62
2023-01-19T14:53:38.383Z,9.51
2023-01-19T14:56:07.686Z,9.47
2023-01-19T14:58:36.566Z,9.49
2023-01-19T15:01:06.392Z,9.47
2023-01-19T15:03:49.313Z,9.41
2023-01-19T15:06:21.126Z,9.34
2023-01-19T15:08:50.558Z,9.30
2023-01-19T15:11:47.106Z,9.20
2023-01-19T15:14:17.617Z,9.18
2023-01-19T15:16:46.166Z,9.18
2023-01-19T15:19:17.031Z,9.17
2023-01-19T15:21:46.995Z,9.16
2023-01-19T15:24:17.748Z,9.13
2023-01-19T15:26:46.410Z,9.06
2023-01-19T15:29:26.337Z,8.98
2023-01-19T15:31:54.445Z,9.04
2023-01-19T15:34:22.694Z,9.02
2023-01-19T15:36:50.770Z,8.95
2023-01-19T15:39:19.041Z,8.89
2023-01-19T15:41:47.114Z,8.70
2023-01-19T15:44:15.164Z,8.67
2023-01-19T15:46:43.347Z,8.75
2023-01-19T15:49:11.470Z,8.69
2023-01-19T15:51:39.768Z,8.65
2023-01-19T15:54:16.536Z,8.68
2023-01-19T15:56:44.827Z,8.54
2023-01-19T15:59:13.117Z,8.51
2023-01-19T16:01:41.604Z,8.60
2023-01-19T16:04:11.847Z,8.55
2023-01-19T16:06:40.040Z,8.42
2023-01-19T16:09:08.209Z,8.40
2023-01-19T16:11:38.464Z,8.33
2023-01-19T16:14:06.529Z,8.29
2023-01-19T16:16:34.737Z,8.26
2023-01-19T16:19:03.003Z,8.19
2023-01-19T16:21:31.085Z,8.14
2023-01-19T16:23:59.171Z,8.07
2023-01-19T16:26:30.642Z,8.06
2023-01-19T16:29:00.633Z,8.09
2023-01-19T16:31:29.362Z,8.09
2023-01-19T16:33:57.853Z,8.01
2023-01-19T16:36:29.005Z,7.94
2023-01-19T16:39:02.058Z,7.94
2023-01-19T16:41:30.155Z,7.94
2023-01-19T16:43:58.991Z,7.81
2023-01-19T16:46:28.195Z,7.72
2023-01-19T16:49:02.249Z,7.73
2023-01-19T16:51:30.990Z,7.67
2023-01-19T16:53:59.511Z,7.64
2023-01-19T16:56:28.131Z,7.54
2023-01-19T16:58:58.013Z,7.50
2023-01-19T17:01:29.174Z,7.48
2023-01-19T17:03:57.655Z,7.52
2023-01-19T17:06:26.685Z,7.62
2023-01-19T17:08:55.255Z,7.66
2023-01-19T17:11:24.974Z,7.71
2023-01-19T17:14:00.248Z,7.66
2023-01-19T17:16:30.366Z,7.65
2023-01-19T17:18:59.898Z,7.57
2023-01-19T17:21:28.778Z,7.56
2023-01-19T17:23:57.271Z,7.50
2023-01-19T17:26:28.391Z,7.45
2023-01-19T17:29:01.749Z,7.41
2023-01-19T17:31:30.591Z,7.37
2023-01-19T17:34:00.275Z,7.29
2023-01-19T17:36:30.540Z,7.25
2023-01-19T17:39:00.838Z,7.18
2023-01-19T17:41:31.493Z,7.16
2023-01-19T17:44:00.919Z,7.11
2023-01-19T17:46:29.739Z,7.10
2023-01-19T17:49:02.717Z,7.17
2023-01-19T17:51:32.083Z,7.24
2023-01-19T17:54:00.276Z,7.37
2023-01-19T17:56:32.410Z,7.42
2023-01-19T17:59:00.646Z,7.49
2023-01-19T18:01:33.724Z,7.61
2023-01-19T18:04:02.701Z,7.70
2023-01-19T18:06:30.879Z,7.64
2023-01-19T18:09:01.800Z,7.64
2023-01-19T18:11:29.915Z,7.59
2023-01-19T18:13:58.716Z,7.52
2023-01-19T18:16:29.585Z,7.50
2023-01-19T18:18:57.818Z,7.53
2023-01-19T18:21:30.586Z,7.57
2023-01-19T18:24:02.282Z,7.62
2023-01-19T18:26:32.460Z,7.65
2023-01-19T18:29:01.063Z,7.64
2023-01-19T18:31:29.192Z,7.76
2023-01-19T18:33:57.401Z,7.78
2023-01-19T18:36:26.219Z,7.80
2023-01-19T18:38:54.213Z,7.75
2023-01-19T18:41:22.296Z,7.72
2023-01-19T18:43:52.068Z,7.68
2023-01-19T18:46:21.399Z,7.63
2023-01-19T18:48:49.708Z,7.60
2023-01-19T18:51:18.526Z,7.53
2023-01-19T18:53:46.812Z,7.51
2023-01-19T18:56:16.578Z,7.48
2023-01-19T18:58:44.969Z,7.47
2023-01-19T19:01:22.380Z,7.47
2023-01-19T19:03:51.772Z,7.46
2023-01-19T19:06:20.979Z,7.48
2023-01-19T19:08:53.250Z,7.47
2023-01-19T19:11:23.634Z,7.46
2023-01-19T19:13:57.879Z,7.49
2023-01-19T19:16:26.805Z,7.57
2023-01-19T19:18:55.115Z,7.52
2023-01-19T19:21:25.448Z,7.37
2023-01-19T19:23:55.436Z,7.31
2023-01-19T19:26:24.800Z,7.29
2023-01-19T19:28:52.986Z,7.27
2023-01-19T19:31:23.165Z,7.17
2023-01-19T19:33:51.858Z,7.12
2023-01-19T19:36:21.064Z,7.09
2023-01-19T19:38:50.088Z,6.97
2023-01-19T19:41:21.339Z,6.91
2023-01-19T19:43:50.119Z,6.85
2023-01-19T19:46:20.443Z,6.86
2023-01-19T19:48:49.186Z,6.87
2023-01-19T19:51:22.681Z,6.94
2023-01-19T19:53:52.623Z,6.92
2023-01-19T19:56:23.587Z,6.88
2023-01-19T19:58:54.713Z,6.85
2023-01-19T20:01:28.576Z,6.81
2023-01-19T20:04:00.048Z,6.72
2023-01-19T20:06:28.301Z,6.62
2023-01-19T20:08:56.958Z,6.54
2023-01-19T20:11:28.662Z,6.44
2023-01-19T20:13:56.699Z,6.35
2023-01-19T20:16:25.520Z,6.26
2023-01-19T20:18:56.925Z,6.21
2023-01-19T20:21:30.662Z,6.14
2023-01-19T20:24:18.324Z,6.09
2023-01-19T20:26:50.374Z,6.05
2023-01-19T20:29:20.076Z,6.00
2023-01-19T20:31:53.976Z,5.96
2023-01-19T20:34:24.961Z,5.89
2023-01-19T20:36:55.239Z,5.85
2023-01-19T20:39:24.944Z,5.80
2023-01-19T20:41:53.088Z,6.00
2023-01-19T20:44:24.050Z,6.06
2023-01-19T20:46:53.495Z,6.12
2023-01-19T20:49:22.216Z,6.13
2023-01-19T20:51:52.084Z,6.11
2023-01-19T20:54:26.332Z,6.11
2023-01-19T20:56:54.604Z,6.10
2023-01-19T20:59:23.792Z,6.09
2023-01-19T21:01:52.470Z,6.07
2023-01-19T21:04:20.550Z,6.04
2023-01-19T21:06:48.739Z,6.04
2023-01-19T21:09:18.633Z,6.01
2023-01-19T21:11:46.870Z,5.96
2023-01-19T21:14:14.954Z,5.88
2023-01-19T21:16:43.104Z,5.82
2023-01-19T21:19:12.144Z,5.75
2023-01-19T21:21:40.179Z,5.70
2023-01-19T21:24:10.424Z,5.64
2023-01-19T21:26:38.568Z,5.59
2023-01-19T21:29:06.855Z,5.55
2023-01-19T21:31:35.117Z,5.48
2023-01-19T21:34:03.338Z,5.32
2023-01-19T21:36:31.537Z,5.24
2023-01-19T21:39:05.049Z,5.20
2023-01-19T21:41:34.926Z,5.16
2023-01-19T21:44:03.079Z,5.18
2023-01-19T21:46:33.144Z,5.13
2023-01-19T21:49:04.188Z,5.09
2023-01-19T21:51:34.880Z,5.06
2023-01-19T21:54:05.255Z,5.01
2023-01-19T21:56:35.096Z,4.98
2023-01-19T21:59:04.402Z,4.94
2023-01-19T22:01:33.661Z,4.91
2023-01-19T22:04:01.947Z,4.90
2023-01-19T22:06:30.139Z,4.86
2023-01-19T22:08:58.605Z,4.80
2023-01-19T22:11:28.077Z,4.74
2023-01-19T22:13:56.626Z,4.69
2023-01-19T22:16:24.759Z,4.67
2023-01-19T22:18:59.694Z,4.61
2023-01-19T22:21:35.141Z,4.59
2023-01-19T22:24:05.068Z,4.57
2023-01-19T22:26:34.497Z,4.56
2023-01-19T22:29:04.443Z,4.54
2023-01-19T22:31:33.018Z,4.49
2023-01-19T22:34:01.105Z,4.43
2023-01-19T22:36:35.688Z,4.36
2023-01-19T22:39:09.278Z,4.32
2023-01-19T22:41:40.930Z,4.19
2023-01-19T22:44:12.906Z,4.14
2023-01-19T22:46:41.069Z,4.06
2023-01-19T22:49:12.753Z,4.00
2023-01-19T22:51:41.534Z,4.00
2023-01-19T22:54:10.038Z,3.98
2023-01-19T22:56:39.279Z,3.95
2023-01-19T22:59:07.763Z,3.97
2023-01-19T23:01:41.527Z,3.97
2023-01-19T23:04:13.253Z,3.87
2023-01-19T23:06:43.294Z,3.73
2023-01-19T23:09:14.252Z,3.54
2023-01-19T23:11:45.186Z,3.62
2023-01-19T23:14:16.886Z,3.69
2023-01-19T23:16:47.358Z,3.76
2023-01-19T23:19:17.384Z,3.81
2023-01-19T23:21:46.041Z,3.89
2023-01-19T23:24:14.058Z,3.93
2023-01-19T23:26:42.207Z,4.00
2023-01-19T23:29:13.862Z,4.01
2023-01-19T23:31:47.556Z,4.03
2023-01-19T23:34:17.064Z,4.08
2023-01-19T23:36:45.741Z,4.12
2023-01-19T23:39:17.117Z,4.16
2023-01-19T23:41:45.903Z,4.20
2023-01-19T23:44:13.896Z,4.21
2023-01-19T23:46:41.948Z,4.23
2023-01-19T23:49:09.966Z,4.21
2023-01-19T23:51:39.720Z,4.20
2023-01-19T23:54:08.101Z,4.24
2023-01-19T23:56:37.735Z,4.31
2023-01-19T23:59:12.052Z,4.41
